createdAt,value
2018-12-03T00:01:48.490Z,6.40
2018-12-03T00:04:21.241Z,2.80
2018-12-03T00:06:51.704Z,2.53
2018-12-03T00:09:21.803Z,2.03
2018-12-03T00:11:51.923Z,2.10
2018-12-03T00:14:22.236Z,2.93
2018-12-03T00:16:52.241Z,5.73
2018-12-03T00:19:22.349Z,1.93
2018-12-03T00:21:52.394Z,2.83
2018-12-03T00:24:22.470Z,3.10
2018-12-03T00:26:52.770Z,2.77
2018-12-03T00:29:22.858Z,3.27
2018-12-03T00:31:52.990Z,5.93
2018-12-03T00:34:23.235Z,4.37
2018-12-03T00:36:53.554Z,5.70
2018-12-03T00:39:23.676Z,5.07
2018-12-03T00:41:53.592Z,3.83
2018-12-03T00:44:23.674Z,7.13
2018-12-03T00:46:53.693Z,6.50
2018-12-03T00:49:23.833Z,3.00
2018-12-03T00:51:53.979Z,3.20
2018-12-03T00:54:23.945Z,3.87
2018-12-03T00:56:54.176Z,4.97
2018-12-03T00:59:24.304Z,7.63
2018-12-03T01:01:54.512Z,10.00
2018-12-03T01:04:24.657Z,8.93
2018-12-03T01:06:54.881Z,3.77
2018-12-03T01:09:25.066Z,4.23
2018-12-03T01:11:55.460Z,5.10
2018-12-03T01:14:25.653Z,2.50
2018-12-03T01:16:55.926Z,2.07
2018-12-03T01:19:27.022Z,2.10
2018-12-03T01:21:57.267Z,2.43
2018-12-03T01:24:27.728Z,1.60
2018-12-03T01:26:57.863Z,1.70
2018-12-03T01:29:28.186Z,1.47
2018-12-03T01:31:58.467Z,1.63
2018-12-03T01:34:28.527Z,3.03
2018-12-03T01:36:58.673Z,4.50
2018-12-03T01:39:29.066Z,5.53
2018-12-03T01:41:59.217Z,3.73
2018-12-03T01:44:29.472Z,2.57
2018-12-03T01:46:59.703Z,2.87
2018-12-03T01:49:29.805Z,3.50
2018-12-03T01:52:00.090Z,3.03
2018-12-03T01:54:31.173Z,5.03
2018-12-03T01:57:01.346Z,5.10
2018-12-03T01:59:32.097Z,3.13
2018-12-03T02:02:02.068Z,3.03
2018-12-03T02:04:32.399Z,3.60
2018-12-03T02:07:03.009Z,3.17
2018-12-03T02:09:33.362Z,1.70
2018-12-03T02:12:03.627Z,2.77
2018-12-03T02:14:33.725Z,2.03
2018-12-03T02:17:03.857Z,2.00
2018-12-03T02:19:35.010Z,1.77
2018-12-03T02:22:05.186Z,1.70
2018-12-03T02:24:35.385Z,2.90
2018-12-03T02:27:06.421Z,1.90
2018-12-03T02:29:36.597Z,3.63
2018-12-03T02:32:06.988Z,3.30
2018-12-03T02:34:37.178Z,2.93
2018-12-03T02:37:07.303Z,11.33
2018-12-03T02:39:37.261Z,2.40
2018-12-03T02:42:08.091Z,1.97
2018-12-03T02:44:38.049Z,1.67
2018-12-03T02:47:08.923Z,3.13
2018-12-03T02:49:38.912Z,2.40
2018-12-03T02:52:08.981Z,2.30
2018-12-03T02:54:38.962Z,2.40
2018-12-03T02:57:09.073Z,1.87
2018-12-03T02:59:39.990Z,1.80
2018-12-03T03:02:09.952Z,2.30
2018-12-03T03:04:40.035Z,2.70
2018-12-03T03:07:10.107Z,2.40
2018-12-03T03:09:40.175Z,3.03
2018-12-03T03:12:10.342Z,1.63
2018-12-03T03:14:41.199Z,1.63
2018-12-03T03:17:11.388Z,2.07
2018-12-03T03:19:42.098Z,1.80
2018-12-03T03:22:12.128Z,2.30
2018-12-03T03:24:42.173Z,2.33
2018-12-03T03:27:12.359Z,0.80
2018-12-03T03:29:42.469Z,2.10
2018-12-03T03:32:13.085Z,3.80
2018-12-03T03:34:43.416Z,0.87
2018-12-03T03:37:13.559Z,1.00
2018-12-03T03:39:43.656Z,1.00
2018-12-03T03:42:13.875Z,1.10
2018-12-03T03:44:43.985Z,1.20
2018-12-03T03:47:14.025Z,4.33
2018-12-03T03:49:44.212Z,0.80
2018-12-03T03:52:14.276Z,3.80
2018-12-03T03:54:44.346Z,1.57
2018-12-03T03:57:14.483Z,2.70
2018-12-03T03:59:44.475Z,1.80
2018-12-03T04:02:15.121Z,1.80
2018-12-03T04:04:45.370Z,1.50
2018-12-03T04:07:15.403Z,2.20
2018-12-03T04:09:45.759Z,1.60
2018-12-03T04:12:15.838Z,1.20
2018-12-03T04:14:45.787Z,1.50
2018-12-03T04:17:15.867Z,2.07
2018-12-03T04:19:45.975Z,1.40
2018-12-03T04:22:16.184Z,3.37
2018-12-03T04:24:46.262Z,2.83
2018-12-03T04:27:16.607Z,4.03
2018-12-03T04:29:46.875Z,1.10
2018-12-03T04:32:17.573Z,3.47
2018-12-03T04:34:47.696Z,3.33
2018-12-03T04:37:17.959Z,3.07
2018-12-03T04:39:48.046Z,1.60
2018-12-03T04:42:18.164Z,2.00
2018-12-03T04:44:48.470Z,3.23
2018-12-03T04:47:18.423Z,1.13
2018-12-03T04:49:48.355Z,1.40
2018-12-03T04:52:18.680Z,3.07
2018-12-03T04:54:48.945Z,2.17
2018-12-03T04:57:19.158Z,1.87
2018-12-03T04:59:49.532Z,2.50
2018-12-03T05:02:19.653Z,4.20
2018-12-03T05:04:49.971Z,1.50
2018-12-03T05:07:20.059Z,4.53
2018-12-03T05:09:50.875Z,2.23
2018-12-03T05:12:21.231Z,2.93
2018-12-03T05:14:51.460Z,2.67
2018-12-03T05:17:21.624Z,2.27
2018-12-03T05:19:52.037Z,1.80
2018-12-03T05:22:22.236Z,1.50
2018-12-03T05:24:52.500Z,1.03
2018-12-03T05:27:22.640Z,1.63
2018-12-03T05:29:52.908Z,1.20
2018-12-03T05:32:23.079Z,1.10
2018-12-03T05:34:53.033Z,2.10
2018-12-03T05:37:23.065Z,4.03
2018-12-03T05:39:53.276Z,1.27
2018-12-03T05:42:23.340Z,1.67
2018-12-03T05:44:53.260Z,1.50
2018-12-03T05:47:23.759Z,1.80
2018-12-03T05:49:53.699Z,3.40
2018-12-03T05:52:23.852Z,0.87
2018-12-03T05:54:53.801Z,0.80
2018-12-03T05:57:24.114Z,0.97
2018-12-03T05:59:53.985Z,1.57
2018-12-03T06:02:24.083Z,0.90
2018-12-03T06:04:54.176Z,1.70
2018-12-03T06:07:24.488Z,7.33
2018-12-03T06:09:54.657Z,1.20
2018-12-03T06:12:24.833Z,1.57
2018-12-03T06:14:54.606Z,1.90
2018-12-03T06:17:24.728Z,2.20
2018-12-03T06:19:54.726Z,5.70
2018-12-03T06:22:24.832Z,1.30
2018-12-03T06:24:54.969Z,1.00
2018-12-03T06:27:25.127Z,2.17
2018-12-03T06:29:55.912Z,1.23
2018-12-03T06:32:26.439Z,1.20
2018-12-03T06:34:56.535Z,6.07
2018-12-03T06:37:27.025Z,13.10
2018-12-03T06:39:57.172Z,115.13
2018-12-03T06:42:27.506Z,144.97
2018-12-03T06:44:57.607Z,55.90
2018-12-03T06:47:27.867Z,51.20
2018-12-03T06:49:57.975Z,6.97
2018-12-03T06:52:28.130Z,2.13
2018-12-03T06:54:58.302Z,2.17
2018-12-03T06:57:28.554Z,14.83
2018-12-03T06:59:58.665Z,2.17
2018-12-03T07:02:28.742Z,4.40
2018-12-03T07:04:58.952Z,3.43
2018-12-03T07:07:29.018Z,3.57
2018-12-03T07:09:59.191Z,3.43
2018-12-03T07:12:29.636Z,7.73
2018-12-03T07:14:59.938Z,12.57
2018-12-03T07:17:30.637Z,28.77
2018-12-03T07:20:00.805Z,41.93
2018-12-03T07:22:30.967Z,18.33
2018-12-03T07:25:01.331Z,6.67
2018-12-03T07:27:31.229Z,1.83
2018-12-03T07:30:01.390Z,1.77
2018-12-03T07:32:31.821Z,1.80
2018-12-03T07:35:01.922Z,4.23
2018-12-03T07:37:32.027Z,3.70
2018-12-03T07:40:01.948Z,2.87
2018-12-03T07:42:32.098Z,1.63
2018-12-03T07:45:02.309Z,1.73
2018-12-03T07:47:32.613Z,1.60
2018-12-03T07:50:02.850Z,5.53
2018-12-03T07:52:32.881Z,8.43
2018-12-03T07:55:02.798Z,2.37
2018-12-03T07:57:32.841Z,3.80
2018-12-03T08:00:02.961Z,1.60
2018-12-03T08:02:33.127Z,2.20
2018-12-03T08:05:03.369Z,1.97
2018-12-03T08:07:33.352Z,2.73
2018-12-03T08:10:03.914Z,1.80
2018-12-03T08:12:34.238Z,1.87
2018-12-03T08:15:04.683Z,2.30
2018-12-03T08:17:34.815Z,4.10
2018-12-03T08:20:05.727Z,7.30
2018-12-03T08:22:36.058Z,2.63
2018-12-03T08:25:06.628Z,7.40
2018-12-03T08:27:36.640Z,2.83
2018-12-03T08:30:09.851Z,2.47
2018-12-03T08:32:40.127Z,2.67
2018-12-03T08:35:13.778Z,4.07
2018-12-03T08:37:43.861Z,10.17
2018-12-03T08:40:15.321Z,3.77
2018-12-03T08:42:51.523Z,3.20
2018-12-03T08:45:22.345Z,5.57
2018-12-03T08:47:52.500Z,3.00
2018-12-03T08:50:23.876Z,3.13
2018-12-03T08:52:54.012Z,4.83
2018-12-03T08:55:23.978Z,5.00
2018-12-03T08:57:54.325Z,3.47
2018-12-03T09:00:28.853Z,1.90
2018-12-03T09:03:07.682Z,5.43
2018-12-03T09:05:40.312Z,3.43
2018-12-03T09:08:11.550Z,8.27
2018-12-03T09:10:43.122Z,6.73
2018-12-03T09:13:18.033Z,4.27
2018-12-03T09:16:00.213Z,3.70
2018-12-03T09:18:34.213Z,8.43
2018-12-03T09:21:09.915Z,5.40
2018-12-03T09:23:40.233Z,12.00
2018-12-03T09:26:10.736Z,11.97
2018-12-03T09:28:40.910Z,11.37
2018-12-03T09:31:13.742Z,5.70
2018-12-03T09:33:44.210Z,1.67
2018-12-03T09:36:18.557Z,1.07
2018-12-03T09:38:57.906Z,1.87
2018-12-03T09:41:27.815Z,3.13
2018-12-03T09:43:57.946Z,1.60
2018-12-03T09:46:27.842Z,5.90
2018-12-03T09:48:59.082Z,19.73
2018-12-03T09:51:33.245Z,3.70
2018-12-03T09:54:05.506Z,1.03
2018-12-03T09:56:53.663Z,1.90
2018-12-03T09:59:25.026Z,1.60
2018-12-03T10:01:57.915Z,0.90
2018-12-03T10:04:34.055Z,1.30
2018-12-03T10:07:04.485Z,0.90
2018-12-03T10:09:37.340Z,1.10
2018-12-03T10:12:08.837Z,11.77
2018-12-03T10:14:38.954Z,6.80
2018-12-03T10:17:09.073Z,4.43
2018-12-03T10:19:39.048Z,21.97
2018-12-03T10:22:09.353Z,11.23
2018-12-03T10:24:39.425Z,9.70
2018-12-03T10:27:11.667Z,8.23
2018-12-03T10:29:42.010Z,12.60
2018-12-03T10:32:15.813Z,9.90
2018-12-03T10:34:46.034Z,4.83
2018-12-03T10:37:16.390Z,1.77
2018-12-03T10:39:46.530Z,3.40
2018-12-03T10:42:17.918Z,1.40
2018-12-03T10:44:48.068Z,1.87
2018-12-03T10:47:18.304Z,3.87
2018-12-03T10:49:48.356Z,5.73
2018-12-03T10:52:20.912Z,2.50
2018-12-03T10:54:51.155Z,2.23
2018-12-03T10:57:22.357Z,1.20
2018-12-03T10:59:54.065Z,1.87
2018-12-03T11:02:29.841Z,0.97
2018-12-03T11:05:04.923Z,2.40
2018-12-03T11:07:35.069Z,1.50
2018-12-03T11:10:05.956Z,1.43
2018-12-03T11:12:36.253Z,5.70
2018-12-03T11:15:12.750Z,7.17
2018-12-03T11:17:42.775Z,4.00
2018-12-03T11:20:13.117Z,1.20
2018-12-03T11:22:43.665Z,1.60
2018-12-03T11:25:15.787Z,2.53
2018-12-03T11:27:48.391Z,0.93
2018-12-03T11:30:18.332Z,1.10
2018-12-03T11:32:48.425Z,5.33
2018-12-03T11:35:26.485Z,0.87
2018-12-03T11:38:05.291Z,1.20
2018-12-03T11:40:46.614Z,2.83
2018-12-03T11:43:16.944Z,5.17
2018-12-03T11:45:47.445Z,4.80
2018-12-03T11:48:17.563Z,8.33
2018-12-03T11:50:47.862Z,2.93
2018-12-03T11:53:18.458Z,2.03
2018-12-03T11:55:48.377Z,2.17
2018-12-03T11:58:18.632Z,2.23
2018-12-03T12:00:48.802Z,2.20
2018-12-03T12:03:18.998Z,1.67
2018-12-03T12:05:49.148Z,1.40
2018-12-03T12:08:20.351Z,1.43
2018-12-03T12:10:49.463Z,1.60
2018-12-03T12:13:19.628Z,2.73
2018-12-03T12:15:49.989Z,3.50
2018-12-03T12:18:20.002Z,4.30
2018-12-03T12:20:50.357Z,4.10
2018-12-03T12:23:20.572Z,2.40
2018-12-03T12:25:50.826Z,5.23
2018-12-03T12:28:21.174Z,3.10
2018-12-03T12:30:51.291Z,1.93
2018-12-03T12:33:21.710Z,3.90
2018-12-03T12:35:52.091Z,9.93
2018-12-03T12:38:22.897Z,1.70
2018-12-03T12:40:52.864Z,1.80
2018-12-03T12:43:23.178Z,0.87
2018-12-03T12:45:56.476Z,1.60
2018-12-03T12:48:26.630Z,3.33
2018-12-03T12:50:57.062Z,2.50
2018-12-03T12:53:27.214Z,3.20
2018-12-03T12:55:57.312Z,2.50
2018-12-03T12:58:27.574Z,3.73
2018-12-03T13:00:57.733Z,4.53
2018-12-03T13:03:27.986Z,2.83
2018-12-03T13:05:58.092Z,2.53
2018-12-03T13:08:28.094Z,4.50
2018-12-03T13:10:58.213Z,3.13
2018-12-03T13:13:28.211Z,5.60
2018-12-03T13:15:58.498Z,5.20
2018-12-03T13:18:29.062Z,8.50
2018-12-03T13:20:59.150Z,3.87
2018-12-03T13:23:29.584Z,3.87
2018-12-03T13:26:00.125Z,3.33
2018-12-03T13:28:30.257Z,4.07
2018-12-03T13:31:00.486Z,6.00
2018-12-03T13:33:30.681Z,4.70
2018-12-03T13:36:00.704Z,6.70
2018-12-03T13:38:30.957Z,4.03
2018-12-03T13:41:01.687Z,7.23
2018-12-03T13:43:31.876Z,5.70
2018-12-03T13:46:01.909Z,5.60
2018-12-03T13:48:32.096Z,3.13
2018-12-03T13:51:02.442Z,3.50
2018-12-03T13:53:32.766Z,4.50
2018-12-03T13:56:02.905Z,8.70
2018-12-03T13:58:32.874Z,9.33
2018-12-03T14:01:02.993Z,3.37
2018-12-03T14:03:35.035Z,5.23
2018-12-03T14:06:17.460Z,3.43
2018-12-03T14:09:13.146Z,3.17
2018-12-03T14:12:10.318Z,3.23
2018-12-03T14:14:55.318Z,5.13
2018-12-03T14:17:32.522Z,2.63
2018-12-03T14:20:02.435Z,3.27
2018-12-03T14:22:36.824Z,2.20
2018-12-03T14:25:07.821Z,4.43
2018-12-03T14:27:37.918Z,4.20
2018-12-03T14:30:10.185Z,8.93
2018-12-03T14:32:41.908Z,4.13
2018-12-03T14:35:13.737Z,8.57
2018-12-03T14:37:43.822Z,5.00
2018-12-03T14:40:14.180Z,3.50
2018-12-03T14:42:44.245Z,3.50
2018-12-03T14:45:14.547Z,7.67
2018-12-03T14:47:44.930Z,3.67
2018-12-03T14:50:15.316Z,5.90
2018-12-03T14:52:45.666Z,4.03
2018-12-03T14:55:16.510Z,6.17
2018-12-03T14:57:46.898Z,3.40
2018-12-03T15:00:17.174Z,8.77
2018-12-03T15:02:47.401Z,2.70
2018-12-03T15:05:17.805Z,3.00
2018-12-03T15:07:48.305Z,2.53
2018-12-03T15:10:18.503Z,4.23
2018-12-03T15:12:49.240Z,3.30
2018-12-03T15:15:20.141Z,2.10
2018-12-03T15:17:50.358Z,6.20
2018-12-03T15:20:20.301Z,4.80
2018-12-03T15:22:50.530Z,12.77
2018-12-03T15:25:20.753Z,6.13
2018-12-03T15:27:51.017Z,4.57
2018-12-03T15:30:21.140Z,5.67
2018-12-03T15:32:51.239Z,8.67
2018-12-03T15:35:21.909Z,3.93
2018-12-03T15:37:52.318Z,6.23
2018-12-03T15:40:22.341Z,4.40
2018-12-03T15:42:52.474Z,5.00
2018-12-03T15:45:22.794Z,4.60
2018-12-03T15:47:52.962Z,7.00
2018-12-03T15:50:23.107Z,10.30
2018-12-03T15:52:53.437Z,6.30
2018-12-03T15:55:23.874Z,10.53
2018-12-03T15:57:54.007Z,11.23
2018-12-03T16:00:24.865Z,4.30
2018-12-03T16:02:55.230Z,8.90
2018-12-03T16:05:26.442Z,14.60
2018-12-03T16:07:56.817Z,10.87
2018-12-03T16:10:27.020Z,6.60
2018-12-03T16:12:56.850Z,8.90
2018-12-03T16:15:26.928Z,10.20
2018-12-03T16:17:57.156Z,8.37
2018-12-03T16:20:27.109Z,10.03
2018-12-03T16:22:57.172Z,4.00
2018-12-03T16:25:27.423Z,10.10
2018-12-03T16:27:57.629Z,8.50
2018-12-03T16:30:27.896Z,5.90
2018-12-03T16:32:57.984Z,6.70
2018-12-03T16:35:28.240Z,7.60
2018-12-03T16:37:58.138Z,4.10
2018-12-03T16:40:28.265Z,13.97
2018-12-03T16:42:59.027Z,3.27
2018-12-03T16:45:28.664Z,3.50
2018-12-03T16:47:58.848Z,5.40
2018-12-03T16:50:28.963Z,3.93
2018-12-03T16:52:59.462Z,5.77
2018-12-03T16:55:29.359Z,2.20
2018-12-03T16:57:59.331Z,2.67
2018-12-03T17:00:29.548Z,3.53
2018-12-03T17:02:59.580Z,2.30
2018-12-03T17:05:29.710Z,5.60
2018-12-03T17:07:59.733Z,2.70
2018-12-03T17:10:29.975Z,3.10
2018-12-03T17:13:00.351Z,1.90
2018-12-03T17:15:31.246Z,1.90
2018-12-03T17:18:01.324Z,1.80
2018-12-03T17:21:04.375Z,2.93
2018-12-03T17:23:50.105Z,1.97
2018-12-03T17:26:20.174Z,1.87
2018-12-03T17:28:50.701Z,1.80
2018-12-03T17:31:21.028Z,3.27
2018-12-03T17:33:51.534Z,1.67
2018-12-03T17:36:22.331Z,1.67
2018-12-03T17:38:52.395Z,1.40
2018-12-03T17:41:22.638Z,2.40
2018-12-03T17:43:52.661Z,1.60
2018-12-03T17:46:22.678Z,2.07
2018-12-03T17:48:52.972Z,2.07
2018-12-03T17:51:23.058Z,1.93
2018-12-03T17:53:53.491Z,2.27
2018-12-03T17:56:23.468Z,2.40
2018-12-03T17:58:53.690Z,3.33
2018-12-03T18:01:24.202Z,2.07
2018-12-03T18:04:21.647Z,1.67
2018-12-03T18:06:51.883Z,2.60
2018-12-03T18:09:21.988Z,1.40
2018-12-03T18:11:52.158Z,1.60
2018-12-03T18:14:22.474Z,2.10
2018-12-03T18:16:53.033Z,1.60
2018-12-03T18:19:22.981Z,2.43
2018-12-03T18:21:53.130Z,2.23
2018-12-03T18:24:23.176Z,1.90
2018-12-03T18:26:53.189Z,1.50
2018-12-03T18:29:23.054Z,3.13
2018-12-03T18:31:53.190Z,3.57
2018-12-03T18:34:23.985Z,1.70
2018-12-03T18:36:54.516Z,2.20
2018-12-03T18:39:24.713Z,1.53
2018-12-03T18:41:55.011Z,1.50
2018-12-03T18:44:24.989Z,1.47
2018-12-03T18:46:55.292Z,1.80
2018-12-03T18:49:30.119Z,1.63
2018-12-03T18:52:00.246Z,1.60
2018-12-03T18:54:31.134Z,1.80
2018-12-03T18:57:01.621Z,1.40
2018-12-03T18:59:31.749Z,2.93
2018-12-03T19:02:01.798Z,2.30
2018-12-03T19:04:31.848Z,1.63
2018-12-03T19:07:01.930Z,3.27
2018-12-03T19:09:34.023Z,2.57
2018-12-03T19:12:04.160Z,1.40
2018-12-03T19:14:34.388Z,2.73
2018-12-03T19:17:05.415Z,7.47
2018-12-03T19:19:36.004Z,1.37
2018-12-03T19:22:06.141Z,1.43
2018-12-03T19:24:36.363Z,4.77
2018-12-03T19:27:06.476Z,2.40
2018-12-03T19:29:38.934Z,1.23
2018-12-03T19:32:10.805Z,2.53
2018-12-03T19:34:43.201Z,2.40
2018-12-03T19:37:15.901Z,4.43
2018-12-03T19:39:45.960Z,6.13
2018-12-03T19:42:16.148Z,1.93
2018-12-03T19:44:47.337Z,0.70
2018-12-03T19:47:17.527Z,3.20
2018-12-03T19:49:48.145Z,0.70
2018-12-03T19:52:18.476Z,1.03
2018-12-03T19:54:49.373Z,1.60
2018-12-03T19:57:23.267Z,0.60
2018-12-03T20:00:00.726Z,1.00
2018-12-03T20:02:27.247Z,0.70
2018-12-03T20:04:59.940Z,1.80
2018-12-03T20:07:30.337Z,0.60
2018-12-03T20:10:00.372Z,0.70
2018-12-03T20:12:30.606Z,0.80
2018-12-03T20:15:00.615Z,0.77
2018-12-03T20:17:35.264Z,0.60
2018-12-03T20:20:07.965Z,0.87
2018-12-03T20:22:56.990Z,0.90
2018-12-03T20:25:37.608Z,0.70
2018-12-03T20:28:12.515Z,0.70
2018-12-03T20:32:58.202Z,0.90
2018-12-03T20:35:37.998Z,0.70
2018-12-03T20:38:19.068Z,0.73
2018-12-03T20:41:25.722Z,0.60
2018-12-03T20:43:59.826Z,0.50
2018-12-03T20:47:34.329Z,1.03
2018-12-03T20:50:20.584Z,0.60
2018-12-03T20:52:51.505Z,0.60
2018-12-03T20:55:54.691Z,0.50
2018-12-03T20:58:24.674Z,0.60
2018-12-03T21:00:55.525Z,1.67
2018-12-03T21:03:25.659Z,1.13
2018-12-03T21:05:55.812Z,0.60
2018-12-03T21:08:26.205Z,0.60
2018-12-03T21:10:56.497Z,0.80
2018-12-03T21:13:26.739Z,0.80
2018-12-03T21:15:58.569Z,0.73
2018-12-03T21:18:29.014Z,0.60
2018-12-03T21:20:59.341Z,0.73
2018-12-03T21:23:30.071Z,1.07
2018-12-03T21:26:00.317Z,0.60
2018-12-03T21:28:30.809Z,0.60
2018-12-03T21:31:00.816Z,0.90
2018-12-03T21:33:30.927Z,0.70
2018-12-03T21:36:00.984Z,0.70
2018-12-03T21:38:31.146Z,1.73
2018-12-03T21:41:01.817Z,0.60
2018-12-03T21:43:32.005Z,0.50
2018-12-03T21:46:02.806Z,0.83
2018-12-03T21:48:33.250Z,0.50
2018-12-03T21:51:03.651Z,0.80
2018-12-03T21:53:33.696Z,0.70
2018-12-03T21:56:03.805Z,0.50
2018-12-03T21:58:33.885Z,0.83
2018-12-03T22:01:03.912Z,0.73
2018-12-03T22:03:34.046Z,1.90
2018-12-03T22:06:04.450Z,0.77
2018-12-03T22:08:34.493Z,0.60
2018-12-03T22:11:04.540Z,0.60
2018-12-03T22:13:34.954Z,0.57
2018-12-03T22:16:05.154Z,0.90
2018-12-03T22:18:35.317Z,0.80
2018-12-03T22:21:05.971Z,0.60
2018-12-03T22:23:36.049Z,0.63
2018-12-03T22:26:06.223Z,1.13
2018-12-03T22:28:36.391Z,1.27
2018-12-03T22:31:06.469Z,0.60
2018-12-03T22:33:36.687Z,0.70
2018-12-03T22:36:06.922Z,1.50
2018-12-03T22:38:36.897Z,0.63
2018-12-03T22:41:06.822Z,0.60
2018-12-03T22:43:36.939Z,0.70
2018-12-03T22:46:06.862Z,0.60
2018-12-03T22:48:36.777Z,0.83
2018-12-03T22:51:06.658Z,1.37
2018-12-03T22:53:36.547Z,3.20
2018-12-03T22:56:06.537Z,0.83
2018-12-03T22:58:36.765Z,0.80
2018-12-03T23:01:08.498Z,1.00
2018-12-03T23:03:38.513Z,2.50
2018-12-03T23:06:08.449Z,1.67
2018-12-03T23:08:38.671Z,0.70
2018-12-03T23:11:08.744Z,1.13
2018-12-03T23:13:38.827Z,2.90
2018-12-03T23:16:08.916Z,1.67
2018-12-03T23:18:38.967Z,0.70
2018-12-03T23:21:09.022Z,1.70
2018-12-03T23:23:39.387Z,0.90
2018-12-03T23:26:09.474Z,1.13
2018-12-03T23:28:39.391Z,1.17
2018-12-03T23:31:09.727Z,1.00
2018-12-03T23:33:39.755Z,2.27
2018-12-03T23:36:10.113Z,3.30
2018-12-03T23:38:40.017Z,0.60
2018-12-03T23:41:10.631Z,2.03
2018-12-03T23:43:40.822Z,3.30
2018-12-03T23:46:11.032Z,2.40
2018-12-03T23:48:40.926Z,0.63
2018-12-03T23:51:11.202Z,0.60
2018-12-03T23:53:41.171Z,2.73
2018-12-03T23:56:11.199Z,1.43
2018-12-03T23:58:41.248Z,1.23
